• Join FlightAware (Why Join?)
  • Login
  • US Flag 
01:25PM EDT


 

Airport Tracker/Info


-or-


 

Live Flight TrackerFlight Track Log ✈ AWI3551 ✈ 05-Jul-2013 ✈ KBUF - KPHL

Flight Track Log - Related Links

Times and Time Zones

All times are in EDT time to prevent confusion due to time zone crossing. See the AWI3551 flight status page for this flight to view local times or setup timezone preferences in your user account.

Time Position Orientation Groundspeed Altitude Reporting Facility
EDT Latitude Longitude Course Direction KTS MPH feet Rate Location/Type
05:38AM 42.9333 -78.7500 174° South 153 176 1,700  Level Buffalo TRACON
05:38AM 42.9000 -78.7667 200° South 159 183 2,200 1,920 Climbing Buffalo TRACON
05:39AM 42.8614 -78.8100 219° Southwest 210 242 4,600 1,980 Climbing Cleveland Center
05:40AM 42.6411 -78.6882 172° South  Level FlightAware Approximate
05:40AM 42.7986 -78.7950 170° South 215 247 6,200  Level Cleveland Center
05:41AM 42.5442 -78.6688 172° South  Level FlightAware Approximate
05:41AM 42.7253 -78.7744 168° South 242 278 8,100  Level Cleveland Center
05:42AM 42.4469 -78.6523 173° South  Level FlightAware Approximate
05:42AM 42.6583 -78.7567 169° South 271 312 10,000  Level Cleveland Center
05:43AM 42.3491 -78.6475 174° South  Level FlightAware Approximate
05:43AM 42.5872 -78.7389 170° South 271 312 11,700  Level Cleveland Center
05:44AM 42.5056 -78.7186 170° South 281 323 13,200 1,680 Climbing Cleveland Center
05:45AM 42.4197 -78.6989 170° South 300 345 15,100 1,560 Climbing Cleveland Center
05:46AM 42.3319 -78.6761 169° South 313 360 16,400 1,320 Climbing Cleveland Center
05:47AM 42.2419 -78.6536 170° South 325 374 17,800 1,260 Climbing Cleveland Center
05:48AM 42.1497 -78.6283 169° South 335 386 19,000 1,140 Climbing Cleveland Center
05:49AM 42.0558 -78.6256 179° South 335 386 20,100 1,020 Climbing Cleveland Center
05:50AM 41.9600 -78.6258 180° South 340 391 21,100 960 Climbing Cleveland Center
05:51AM 41.8642 -78.6203 178° South 346 398 22,100 840 Climbing Cleveland Center
05:52AM 41.7658 -78.6067 174° South 346 398 22,800 420 Climbing Cleveland Center
05:53AM 41.6731 -78.5400 152° Southeast 352 405 23,000 60 Climbing Cleveland Center
05:54AM 41.5800 -78.4733 152° Southeast 370 426 23,000  Level Cleveland Center
05:55AM 41.4869 -78.4044 151° Southeast 376 433 23,000  Level Cleveland Center
05:56AM 41.3592 -78.3092 151° Southeast 381 438 23,000  Level New York Center
05:57AM 41.2653 -78.2433 152° Southeast 381 438 23,000  Level New York Center
05:58AM 41.1736 -78.1781 152° Southeast 381 438 23,000  Level New York Center
05:59AM 41.0817 -78.1131 152° Southeast 381 438 23,000  Level New York Center
06:00AM 40.9881 -78.0453 151° Southeast 381 438 23,000 -300 Level New York Center
06:01AM 40.9008 -77.9728 148° Southeast 381 438 22,500 -780 Descending New York Center
06:02AM 40.8283 -77.8608 131° Southeast 387 445 21,500 -1,020 Descending New York Center
06:03AM 40.7536 -77.7489 131° Southeast 400 460 20,500 -1,020 Descending New York Center
06:04AM 40.6831 -77.6378 130° Southeast 405 466 19,500 -1,020 Descending New York Center
06:05AM 40.6136 -77.5406 133° Southeast 400 460 18,500 -780 Descending New York Center
06:06AM 40.5439 -77.4106 125° Southeast 395 455 18,000 -300 Descending New York Center
06:07AM 40.5003 -77.2944 116° Southeast 395 455 18,000  Level New York Center
06:08AM 40.4475 -77.1531 116° Southeast 387 445 18,000  Level New York Center
06:09AM 40.3997 -77.0314 117° Southeast 377 434 18,000  Level New York Center
06:10AM 40.3578 -76.9161 115° Southeast 382 440 18,000 -60 Level New York Center
06:11AM 40.3064 -76.7808 116° Southeast 382 440 17,900 -300 Descending New York Center
06:12AM 40.2567 -76.6539 117° Southeast 382 440 17,500 -900 Descending New York Center
06:13AM 40.2086 -76.5275 116° Southeast 382 440 16,100 -1,380 Descending New York Center
06:14AM 40.1681 -76.4183 116° Southeast 382 440 14,700 -1,560 Descending New York Center
06:15AM 40.1431 -76.2858 104° East 370 426 13,000 -1,560 Descending New York Center
06:16AM 40.1797 -76.1664 68° East 342 394 11,600 -1,440 Descending New York Center
06:17AM 40.2181 -76.0608 65° Northeast 342 394 10,200 -840 Descending New York Center
06:18AM 40.1897 -75.9417 107° East 306 352 10,000 -360 Descending New York Center
06:19AM 40.1356 -75.8453 126° Southeast 306 352 9,600 -960 Descending New York Center
06:20AM 40.0869 -75.7631 128° Southeast 301 346 8,100 -1,440 Descending New York Center
06:21AM 40.0767 -75.6647 98° East 267 307 6,800 -1,080 Descending New York Center
06:22AM 40.0703 -75.5639 95° East 273 314 6,000 -420 Descending New York Center
06:23AM 40.0658 -75.4714 94° East 264 304 6,000  Level New York Center
06:24AM 40.0625 -75.3925 93° East 233 268 6,000  Level New York Center
06:25AM 40.0667 -75.3333 85° East 231 266 6,000  Level Philadelphia TRACON
06:26AM 40.0667 -75.2500 90° East 233 268 6,000  Level Philadelphia TRACON
06:27AM 40.0333 -75.1833 123° Southeast 219 252 6,000  Level Philadelphia TRACON
06:28AM 40.0000 -75.1167 123° Southeast 219 252 6,000 -300 Level Philadelphia TRACON
06:29AM 40.0000 -75.0500 90° East 225 259 5,500 -540 Descending Philadelphia TRACON
06:30AM 40.0167 -74.9667 75° East 226 260 5,000 -1,200 Descending Philadelphia TRACON
06:31AM 39.9667 -74.9333 153° Southeast 191 220 3,100 -1,200 Descending Philadelphia TRACON
06:32AM 39.9500 -74.9833 247° West 162 186 2,500 -540 Descending Philadelphia TRACON
06:33AM 39.9333 -75.0333 247° West 151 174 2,200 -420 Descending Philadelphia TRACON